Time;durP1;ratioP1;P1;durP2;ratioP2;P2;SDS_P1;SDS_P2;PMS_P1;PMS_P2;Temp;Humidity;BMP_temperature;BMP_pressure;BME280_temperature;BME280_humidity;BME280_pressure;Samples;Min_cycle;Max_cycle;Signal;HPM_P1;HPM_P2
2021/06/16 00:01:05;;;;;;;9.97;7.77;;;;;;;19.11;100.00;99777.05;1749563;81;21005;-66
2021/06/16 00:03:32;;;;;;;11.90;6.90;;;;;;;19.20;100.00;99780.81;1741527;81;21332;-65
2021/06/16 00:05:59;;;;;;;8.60;7.10;;;;;;;19.25;100.00;99769.52;1756431;81;21488;-66
2021/06/16 00:08:25;;;;;;;9.80;7.33;;;;;;;19.27;100.00;99762.11;1756223;81;21141;-66
2021/06/16 00:10:52;;;;;;;9.47;6.50;;;;;;;19.30;100.00;99755.01;1755650;81;20892;-66
2021/06/16 00:13:20;;;;;;;10.10;6.57;;;;;;;19.36;100.00;99765.37;1755892;81;21716;-67
2021/06/16 00:15:47;;;;;;;10.50;7.37;;;;;;;19.36;100.00;99767.23;1720200;83;21106;-66
2021/06/16 00:18:14;;;;;;;10.53;6.27;;;;;;;19.46;100.00;99765.96;1756591;81;21486;-66
2021/06/16 00:20:40;;;;;;;11.27;7.10;;;;;;;19.35;100.00;99766.93;1756620;81;21087;-66
2021/06/16 00:23:07;;;;;;;7.17;5.87;;;;;;;19.36;100.00;99754.01;1754799;81;20958;-66
2021/06/16 00:25:33;;;;;;;8.37;5.93;;;;;;;19.36;100.00;99750.05;1756528;81;21383;-66
2021/06/16 00:28:00;;;;;;;8.30;5.57;;;;;;;19.37;100.00;99741.06;1756024;81;21817;-66
2021/06/16 00:30:27;;;;;;;10.83;5.37;;;;;;;19.39;100.00;99741.59;1756770;81;21014;-66
2021/06/16 00:32:54;;;;;;;6.37;5.17;;;;;;;19.39;100.00;99737.09;1756083;81;21138;-66
2021/06/16 00:35:21;;;;;;;6.40;5.10;;;;;;;19.31;100.00;99741.53;1755914;81;20978;-66
2021/06/16 00:37:49;;;;;;;7.23;5.80;;;;;;;19.40;100.00;99735.27;1756598;81;21101;-66
2021/06/16 00:40:17;;;;;;;7.87;6.23;;;;;;;19.34;100.00;99744.20;1720333;82;20908;-66
2021/06/16 00:42:43;;;;;;;7.40;5.77;;;;;;;19.17;100.00;99743.82;1756226;81;20919;-66
2021/06/16 00:45:10;;;;;;;9.77;6.30;;;;;;;19.05;100.00;99744.48;1755792;81;21139;-66
2021/06/16 00:47:38;;;;;;;7.13;6.43;;;;;;;18.95;100.00;99751.02;1720996;83;21022;-67
2021/06/16 00:50:07;;;;;;;7.93;6.43;;;;;;;18.87;100.00;99756.23;1756426;81;20939;-66
2021/06/16 00:52:34;;;;;;;7.90;6.37;;;;;;;18.73;100.00;99750.28;1757072;81;20987;-66
2021/06/16 00:55:00;;;;;;;10.83;7.00;;;;;;;18.63;100.00;99750.40;1719382;83;20987;-66
2021/06/16 00:57:28;;;;;;;7.00;6.27;;;;;;;18.52;100.00;99756.61;1756390;81;22338;-66
2021/06/16 01:00:14;;;;;;;8.43;6.33;;;;;;;18.43;100.00;99756.78;1756392;81;20931;-66
2021/06/16 01:02:51;;;;;;;10.73;6.87;;;;;;;18.35;100.00;99754.59;1755997;81;20883;-66
2021/06/16 01:05:18;;;;;;;7.93;7.00;;;;;;;18.24;100.00;99754.45;1756721;81;20931;-67
2021/06/16 01:07:45;;;;;;;6.90;5.70;;;;;;;18.21;100.00;99748.34;1756580;81;20856;-66
2021/06/16 01:10:16;;;;;;;8.13;5.20;;;;;;;18.13;100.00;99750.09;1756416;81;21813;-66
2021/06/16 01:13:07;;;;;;;7.37;5.60;;;;;;;17.80;100.00;99752.81;1755627;81;21065;-66
2021/06/16 01:16:03;;;;;;;13.63;6.83;;;;;;;17.73;100.00;99760.36;1756595;81;20899;-67
2021/06/16 01:18:34;;;;;;;7.73;5.83;;;;;;;17.64;100.00;99761.00;1748911;81;21634;-66
2021/06/16 01:21:00;;;;;;;6.57;5.83;;;;;;;17.70;100.00;99761.36;1756353;81;21449;-67
2021/06/16 01:23:49;;;;;;;10.50;6.53;;;;;;;17.68;100.00;99762.11;1755858;81;21147;-66
2021/06/16 01:26:25;;;;;;;9.97;6.93;;;;;;;17.76;100.00;99757.77;1756046;81;21006;-67
2021/06/16 01:29:06;;;;;;;10.53;6.97;;;;;;;17.79;100.00;99763.09;1755950;81;20935;-66
2021/06/16 01:31:32;;;;;;;8.90;6.70;;;;;;;17.83;100.00;99774.22;1719696;83;21469;-66
2021/06/16 01:34:00;;;;;;;7.63;6.20;;;;;;;17.89;100.00;99779.06;1756472;81;21040;-66
2021/06/16 01:36:27;;;;;;;9.30;6.47;;;;;;;17.88;100.00;99781.39;1756225;81;21173;-67
2021/06/16 01:38:54;;;;;;;8.27;6.97;;;;;;;17.85;100.00;99788.50;1755475;81;20943;-66
2021/06/16 01:41:21;;;;;;;6.53;5.80;;;;;;;17.79;100.00;99792.09;1755337;80;21005;-66
2021/06/16 01:43:52;;;;;;;7.93;5.80;;;;;;;17.77;100.00;99796.30;1756118;81;21097;-66
2021/06/16 01:46:20;;;;;;;9.75;6.58;;;;;;;17.71;100.00;99793.27;1756333;81;20978;-66
2021/06/16 01:48:47;;;;;;;8.73;6.40;;;;;;;17.70;100.00;99790.36;1702379;81;21221;-68
2021/06/16 01:51:15;;;;;;;12.20;6.53;;;;;;;17.79;100.00;99793.41;1756216;80;21634;-69
2021/06/16 01:53:43;;;;;;;9.23;6.07;;;;;;;17.90;100.00;99786.72;1756130;81;21425;-69
2021/06/16 01:56:10;;;;;;;8.07;6.33;;;;;;;17.54;100.00;99788.02;1756159;80;21069;-69
2021/06/16 01:58:38;;;;;;;9.03;5.57;;;;;;;17.67;100.00;99786.36;1756222;81;21442;-69
2021/06/16 02:01:05;;;;;;;8.10;5.83;;;;;;;17.74;100.00;99790.95;1755539;80;22192;-70
2021/06/16 02:03:32;;;;;;;8.37;5.60;;;;;;;17.81;100.00;99803.20;1726346;81;21043;-67
2021/06/16 02:06:00;;;;;;;8.70;5.87;;;;;;;17.87;100.00;99807.49;1756255;81;21595;-69
2021/06/16 02:08:29;;;;;;;7.73;5.20;;;;;;;17.96;100.00;99799.47;1756475;81;21535;-69
2021/06/16 02:10:55;;;;;;;9.33;5.10;;;;;;;18.03;100.00;99797.95;1756493;81;20987;-71
2021/06/16 02:13:45;;;;;;;8.90;5.33;;;;;;;18.09;100.00;99794.35;1734837;81;22507;-66
2021/06/16 02:16:14;;;;;;;9.97;6.07;;;;;;;18.16;100.00;99800.25;1756492;81;21536;-69
2021/06/16 02:18:46;;;;;;;7.63;5.07;;;;;;;18.22;100.00;99805.86;1755990;81;21012;-67
2021/06/16 02:21:13;;;;;;;7.43;5.53;;;;;;;18.35;100.00;99809.47;1719821;83;20992;-67
2021/06/16 02:23:43;;;;;;;6.87;5.10;;;;;;;18.49;100.00;99815.19;1756042;80;21541;-69
2021/06/16 02:26:14;;;;;;;10.17;6.00;;;;;;;18.54;100.00;99807.85;1756347;80;21159;-68
2021/06/16 02:28:41;;;;;;;;;;;;;;;18.64;100.00;99812.73;1758682;81;20943;-69
2021/06/16 02:31:08;;;;;;;11.57;5.63;;;;;;;18.74;100.00;99821.83;1720159;83;20111;-68
2021/06/16 02:33:35;;;;;;;8.30;6.13;;;;;;;18.80;100.00;99824.29;1755751;81;20911;-69
2021/06/16 02:36:04;;;;;;;6.60;5.53;;;;;;;18.91;100.00;99829.95;1756273;81;20982;-66
2021/06/16 02:38:32;;;;;;;8.90;5.40;;;;;;;19.04;100.00;99838.00;1756110;81;21136;-70
2021/06/16 02:41:00;;;;;;;6.67;4.67;;;;;;;19.15;100.00;99845.51;1720134;81;21030;-70
2021/06/16 02:43:27;;;;;;;10.00;4.87;;;;;;;19.24;100.00;99845.32;1755792;80;20994;-69
2021/06/16 02:45:55;;;;;;;6.63;4.63;;;;;;;19.29;100.00;99852.52;1734724;81;21005;-70
2021/06/16 02:48:21;;;;;;;7.60;5.20;;;;;;;19.35;100.00;99848.86;1720623;81;20933;-68
2021/06/16 02:50:48;;;;;;;9.40;5.67;;;;;;;19.48;100.00;99847.67;1755941;81;21119;-70
2021/06/16 02:53:25;;;;;;;8.23;6.07;;;;;;;19.60;100.00;99843.80;1756321;81;20943;-70
2021/06/16 02:55:54;;;;;;;6.93;6.20;;;;;;;19.81;100.00;99845.30;1756684;81;21129;-72
2021/06/16 02:58:21;;;;;;;8.03;6.13;;;;;;;20.62;100.00;99849.75;1756423;81;20975;-71
2021/06/16 03:00:58;;;;;;;7.00;5.10;;;;;;;21.62;100.00;99854.73;1772994;78;64284;-70
2021/06/16 03:03:24;;;;;;;9.40;5.70;;;;;;;22.57;100.00;99858.55;1825277;78;21422;-70
2021/06/16 03:05:51;;;;;;;5.20;4.70;;;;;;;23.50;100.00;99855.11;1824490;78;21779;-72
2021/06/16 03:08:19;;;;;;;8.30;6.00;;;;;;;24.44;100.00;99854.78;1825912;78;21014;-72
2021/06/16 03:10:46;;;;;;;11.93;8.67;;;;;;;25.34;100.00;99844.23;1795951;78;21414;-74
2021/06/16 03:13:12;;;;;;;8.68;7.78;;;;;;;26.26;100.00;99830.09;1825180;78;21506;-72
2021/06/16 03:15:41;;;;;;;11.70;5.50;;;;;;;27.07;100.00;99818.75;1826027;78;20939;-72
2021/06/16 03:18:09;;;;;;;6.78;5.50;;;;;;;27.72;100.00;99810.20;1826386;78;21026;-72
2021/06/16 03:20:36;;;;;;;10.20;7.12;;;;;;;28.36;100.00;99803.11;1826360;78;20890;-72
2021/06/16 03:23:02;;;;;;;8.70;5.10;;;;;;;28.96;100.00;99793.56;1820055;78;20983;-72
2021/06/16 03:25:29;;;;;;;9.78;5.25;;;;;;;29.42;100.00;99794.77;1812348;78;21417;-71
2021/06/16 03:27:56;;;;;;;7.72;4.70;;;;;;;29.90;100.00;99791.79;1796771;78;22196;-68
2021/06/16 03:30:23;;;;;;;5.53;4.70;;;;;;;30.38;100.00;99787.89;1826301;78;20915;-69
2021/06/16 03:32:51;;;;;;;5.20;4.60;;;;;;;30.74;100.00;99794.63;1826457;78;21043;-72
2021/06/16 03:35:18;;;;;;;5.75;4.10;;;;;;;31.01;100.00;99798.66;1825704;78;20959;-71
2021/06/16 03:37:45;;;;;;;6.17;4.55;;;;;;;31.14;100.00;99798.95;1821828;78;21033;-70
2021/06/16 03:40:13;;;;;;;7.12;4.08;;;;;;;31.49;100.00;99802.09;1811200;78;21132;-70
2021/06/16 03:42:40;;;;;;;5.47;3.80;;;;;;;31.81;100.00;99810.42;1826383;78;20991;-71
2021/06/16 03:45:08;;;;;;;9.03;4.20;;;;;;;32.09;100.00;99812.49;1794670;78;21402;-73
2021/06/16 03:47:37;;;;;;;7.70;4.58;;;;;;;32.20;100.00;99813.05;1825545;78;20943;-67
2021/06/16 03:50:05;;;;;;;5.75;4.15;;;;;;;32.41;100.00;99816.17;1826366;78;20892;-69
2021/06/16 03:52:33;;;;;;;6.57;4.73;;;;;;;32.68;100.00;99820.05;1826258;78;20910;-72
2021/06/16 03:55:00;;;;;;;6.92;4.28;;;;;;;32.83;100.00;99817.97;1825007;78;20923;-72
2021/06/16 03:57:27;;;;;;;6.37;4.58;;;;;;;33.18;100.00;99823.58;1825167;78;21283;-71
2021/06/16 03:59:55;;;;;;;6.70;4.75;;;;;;;33.07;100.00;99827.94;1825564;78;21038;-71
2021/06/16 04:02:21;;;;;;;6.62;4.70;;;;;;;32.97;100.00;99827.63;1788405;78;20884;-71
2021/06/16 04:04:48;;;;;;;5.92;4.60;;;;;;;32.80;100.00;99828.66;1816532;78;21114;-71
2021/06/16 04:07:18;;;;;;;8.80;3.80;;;;;;;32.79;100.00;99822.48;1815171;78;20923;-69
2021/06/16 04:09:52;;;;;;;5.65;4.40;;;;;;;32.84;100.00;99830.89;1815967;78;21932;-70
2021/06/16 04:12:18;;;;;;;5.05;3.77;;;;;;;32.89;100.00;99833.37;1815958;78;21526;-69
2021/06/16 04:14:46;;;;;;;5.42;3.35;;;;;;;32.60;100.00;99832.55;1815979;78;21106;-72
2021/06/16 04:17:15;;;;;;;8.18;3.65;;;;;;;31.83;100.00;99835.70;1815349;78;21711;-72
2021/06/16 04:19:43;;;;;;;4.08;3.15;;;;;;;30.75;100.00;99832.52;1787770;78;22459;-71
2021/06/16 04:22:09;;;;;;;5.62;3.58;;;;;;;29.93;100.00;99841.39;1816241;78;20888;-71
2021/06/16 04:24:36;;;;;;;5.25;3.02;;;;;;;29.39;100.00;99846.42;1815716;78;20980;-71
2021/06/16 04:27:05;;;;;;;6.47;3.17;;;;;;;28.92;100.00;99842.25;1805977;78;20943;-71
2021/06/16 04:29:32;;;;;;;8.03;3.80;;;;;;;28.51;100.00;99841.57;1786807;78;21113;-71
2021/06/16 04:31:58;;;;;;;4.37;2.92;;;;;;;28.57;100.00;99847.59;1751522;81;21139;-70
2021/06/16 04:34:25;;;;;;;4.80;2.70;;;;;;;28.98;100.00;99851.21;1731533;82;21477;-70
2021/06/16 04:36:52;;;;;;;7.55;3.22;;;;;;;29.28;100.00;99846.77;1702110;84;20935;-72
2021/06/16 04:39:18;;;;;;;6.45;3.60;;;;;;;29.32;100.00;99846.38;1731231;82;21533;-71
2021/06/16 04:41:45;;;;;;;7.53;3.20;;;;;;;28.95;100.00;99851.02;1731151;82;21093;-70
2021/06/16 04:44:12;;;;;;;7.05;3.10;;;;;;;28.59;100.00;99848.84;1701990;84;20950;-70
2021/06/16 04:46:38;;;;;;;7.28;2.80;;;;;;;28.26;100.00;99848.96;1751006;81;21027;-69
2021/06/16 04:49:05;;;;;;;5.33;3.00;;;;;;;27.95;100.00;99858.39;1730412;82;21063;-71
2021/06/16 04:51:32;;;;;;;5.62;2.83;;;;;;;27.79;100.00;99856.11;1700368;82;21015;-69
2021/06/16 04:53:58;;;;;;;5.08;2.80;;;;;;;28.14;100.00;99859.72;1750308;81;22235;-69
2021/06/16 04:56:25;;;;;;;5.62;3.27;;;;;;;28.93;100.00;99856.69;1751529;81;21074;-69
2021/06/16 04:58:51;;;;;;;6.08;2.90;;;;;;;29.91;100.00;99849.00;1730705;82;21030;-68
2021/06/16 05:01:18;;;;;;;7.70;2.75;;;;;;;30.68;100.00;99848.36;1706257;81;21002;-70
2021/06/16 05:03:45;;;;;;;6.40;2.35;;;;;;;31.22;100.00;99849.23;1778084;80;20917;-69
2021/06/16 05:06:12;;;;;;;9.73;2.52;;;;;;;32.03;100.00;99851.02;1776700;79;21287;-69
2021/06/16 05:08:39;;;;;;;4.62;1.92;;;;;;;32.84;100.00;99859.24;1778378;79;21310;-69
2021/06/16 05:11:06;;;;;;;5.45;2.25;;;;;;;33.50;100.00;99859.38;1777790;80;21024;-67
2021/06/16 05:13:33;;;;;;;6.95;2.27;;;;;;;33.99;100.00;99863.13;1777697;80;21051;-69
2021/06/16 05:16:00;;;;;;;4.22;2.25;;;;;;;34.52;100.00;99854.11;1777473;80;21008;-69
2021/06/16 05:18:28;;;;;;;4.75;2.33;;;;;;;35.03;100.00;99860.20;1777465;79;21126;-69
2021/06/16 05:20:54;;;;;;;5.17;2.20;;;;;;;35.30;100.00;99857.03;1778191;80;21994;-68
2021/06/16 05:23:28;;;;;;;5.22;2.72;;;;;;;35.38;100.00;99854.45;1778277;80;21062;-67
2021/06/16 05:25:55;;;;;;;4.97;2.45;;;;;;;35.71;100.00;99853.90;1776992;79;20877;-68
2021/06/16 05:28:22;;;;;;;6.12;2.47;;;;;;;36.13;99.25;99854.39;1778172;79;20984;-69
2021/06/16 05:30:48;;;;;;;4.22;2.20;;;;;;;36.41;95.05;99858.88;1777789;80;21131;-68
2021/06/16 05:33:15;;;;;;;4.35;1.95;;;;;;;36.18;92.17;99859.49;1778064;80;21773;-69
2021/06/16 05:35:42;;;;;;;4.33;2.35;;;;;;;35.62;97.09;99858.80;1778188;80;21442;-69
2021/06/16 05:38:09;;;;;;;4.20;2.45;;;;;;;34.81;100.00;99856.25;1777854;79;21023;-68
2021/06/16 05:40:37;;;;;;;3.08;2.02;;;;;;;34.49;100.00;99862.36;1778101;80;21079;-67
2021/06/16 05:43:04;;;;;;;5.75;2.50;;;;;;;34.46;100.00;99851.42;1778302;80;21591;-68
2021/06/16 05:45:31;;;;;;;3.50;1.90;;;;;;;34.74;100.00;99849.91;1778126;79;20972;-67
2021/06/16 05:47:57;;;;;;;4.80;1.92;;;;;;;35.00;99.48;99856.85;1777605;80;20929;-68
2021/06/16 05:50:24;;;;;;;3.33;1.90;;;;;;;35.10;100.00;99864.98;1778551;80;20985;-68
2021/06/16 05:52:51;;;;;;;3.27;2.35;;;;;;;35.22;100.00;99857.27;1777138;80;21034;-68
2021/06/16 05:55:18;;;;;;;3.60;1.60;;;;;;;35.03;100.00;99868.33;1777971;79;21451;-68
2021/06/16 05:57:44;;;;;;;4.67;1.77;;;;;;;34.47;100.00;99863.24;1777732;80;20991;-67
2021/06/16 06:00:12;;;;;;;3.08;1.87;;;;;;;33.77;100.00;99868.55;1777892;79;21542;-67
2021/06/16 06:02:39;;;;;;;5.28;2.02;;;;;;;33.12;100.00;99869.53;1780431;80;20968;-68
2021/06/16 06:05:06;;;;;;;6.58;2.52;;;;;;;32.83;100.00;99863.08;1780893;80;20928;-68
2021/06/16 06:07:33;;;;;;;6.40;2.17;;;;;;;32.65;100.00;99870.08;1781892;79;21062;-68
2021/06/16 06:09:59;;;;;;;7.12;2.02;;;;;;;32.84;100.00;99864.07;1781492;80;20921;-67
2021/06/16 06:12:26;;;;;;;7.78;2.65;;;;;;;33.20;100.00;99855.66;1770465;78;21082;-67
2021/06/16 06:14:52;;;;;;;8.00;2.37;;;;;;;33.41;100.00;99858.13;1743083;81;21059;-67
2021/06/16 06:17:19;;;;;;;8.55;2.65;;;;;;;33.53;100.00;99856.77;1795863;79;20950;-68
2021/06/16 06:19:46;;;;;;;5.40;2.60;;;;;;;33.62;100.00;99856.02;1795733;79;21476;-69
2021/06/16 06:22:12;;;;;;;6.80;2.58;;;;;;;33.55;100.00;99858.53;1827428;78;21009;-66
2021/06/16 06:24:39;;;;;;;9.00;2.35;;;;;;;33.58;100.00;99862.47;1827104;78;21049;-67
2021/06/16 06:27:07;;;;;;;5.87;2.30;;;;;;;33.53;100.00;99867.57;1827929;78;21539;-67
2021/06/16 06:29:34;;;;;;;9.40;2.33;;;;;;;33.38;100.00;99875.05;1827102;78;21065;-68
2021/06/16 06:32:00;;;;;;;5.15;2.37;;;;;;;33.38;100.00;99874.48;1827248;78;21764;-67
2021/06/16 06:34:27;;;;;;;5.00;2.33;;;;;;;33.03;100.00;99872.14;1828091;78;21029;-68
2021/06/16 06:36:55;;;;;;;4.92;1.60;;;;;;;32.55;100.00;99875.97;1827639;78;21501;-68
2021/06/16 06:39:22;;;;;;;4.17;2.05;;;;;;;32.43;100.00;99874.08;1827254;78;20986;-71
2021/06/16 06:41:48;;;;;;;3.17;2.15;;;;;;;32.52;100.00;99876.64;1827277;78;21057;-71
2021/06/16 06:44:16;;;;;;;3.15;1.87;;;;;;;32.32;100.00;99878.33;1827031;78;21096;-69
2021/06/16 06:46:43;;;;;;;2.77;2.02;;;;;;;32.13;100.00;99886.19;1827770;78;21050;-71
2021/06/16 06:49:11;;;;;;;4.50;1.92;;;;;;;31.97;100.00;99892.78;1827952;78;21497;-68
2021/06/16 06:51:38;;;;;;;3.15;1.87;;;;;;;31.68;100.00;99889.69;1828556;78;21616;-68
2021/06/16 06:54:08;;;;;;;1.98;1.67;;;;;;;31.33;100.00;99897.30;1827246;78;20954;-67
2021/06/16 06:56:34;;;;;;;3.87;2.70;;;;;;;31.06;100.00;99904.00;1827959;78;21657;-70
2021/06/16 06:59:00;;;;;;;2.98;2.17;;;;;;;30.82;100.00;99912.17;1815920;78;21524;-68
2021/06/16 07:01:28;;;;;;;3.98;2.22;;;;;;;30.38;100.00;99907.55;1809124;78;21025;-70
2021/06/16 07:03:55;;;;;;;5.97;2.58;;;;;;;30.27;100.00;99905.03;1812373;78;21029;-68
2021/06/16 07:06:21;;;;;;;7.20;3.08;;;;;;;30.37;100.00;99899.83;1808795;78;21038;-70
2021/06/16 07:08:48;;;;;;;8.10;3.55;;;;;;;30.46;100.00;99897.34;1806441;78;21115;-68
2021/06/16 07:11:15;;;;;;;10.20;3.37;;;;;;;30.56;100.00;99900.19;1811375;78;21097;-68
2021/06/16 07:13:41;;;;;;;5.92;2.62;;;;;;;30.75;100.00;99897.88;1808497;78;20967;-71
2021/06/16 07:16:08;;;;;;;9.60;2.92;;;;;;;31.08;100.00;99899.09;1813000;78;21009;-69
2021/06/16 07:18:34;;;;;;;11.48;3.62;;;;;;;31.23;100.00;99895.23;1809812;78;21045;-70
2021/06/16 07:21:01;;;;;;;19.32;5.35;;;;;;;31.28;100.00;99889.41;1813498;78;21485;-70
2021/06/16 07:23:27;;;;;;;9.93;3.50;;;;;;;31.15;100.00;99893.97;1806968;78;20984;-69
2021/06/16 07:25:54;;;;;;;8.03;2.98;;;;;;;30.94;100.00;99892.61;1804938;78;21556;-69
2021/06/16 07:28:21;;;;;;;4.40;2.40;;;;;;;30.89;100.00;99899.55;1809284;78;21462;-72
2021/06/16 07:30:47;;;;;;;6.08;2.67;;;;;;;30.86;100.00;99904.23;1758419;79;21136;-71
2021/06/16 07:33:14;;;;;;;5.87;2.72;;;;;;;30.61;100.00;99894.64;1762247;81;21147;-71
2021/06/16 07:35:41;;;;;;;6.10;2.75;;;;;;;30.54;100.00;99893.02;1807689;78;20931;-70
2021/06/16 07:38:08;;;;;;;3.17;2.70;;;;;;;30.48;100.00;99909.89;1819066;78;20954;-67
2021/06/16 07:40:34;;;;;;;3.90;2.70;;;;;;;30.44;100.00;99904.92;1815115;78;21059;-70
2021/06/16 07:43:01;;;;;;;6.50;2.65;;;;;;;30.25;100.00;99902.64;1806355;78;22576;-70
2021/06/16 07:45:27;;;;;;;3.85;3.00;;;;;;;30.02;100.00;99895.91;1807924;78;21885;-70
2021/06/16 07:47:54;;;;;;;5.37;2.85;;;;;;;29.98;100.00;99885.58;1807079;78;20969;-69
2021/06/16 07:50:21;;;;;;;6.67;3.20;;;;;;;30.22;100.00;99880.43;1809137;78;21537;-69
2021/06/16 07:52:47;;;;;;;6.35;3.00;;;;;;;30.51;100.00;99880.22;1805025;78;20994;-69
2021/06/16 07:55:15;;;;;;;5.22;2.80;;;;;;;30.63;100.00;99873.56;1806526;78;20964;-70
2021/06/16 07:57:42;;;;;;;8.13;3.52;;;;;;;30.67;100.00;99865.63;1809075;78;22165;-69
2021/06/16 08:00:09;;;;;;;7.28;3.17;;;;;;;30.59;100.00;99864.58;1809601;78;20947;-69
2021/06/16 08:02:40;;;;;;;13.10;4.75;;;;;;;30.58;100.00;99865.70;1805214;77;21100;-71
2021/06/16 08:05:08;;;;;;;12.00;4.08;;;;;;;30.35;100.00;99865.77;1820637;77;21049;-70
2021/06/16 08:07:35;;;;;;;14.85;4.30;;;;;;;30.36;100.00;99862.73;1814520;77;20994;-70
2021/06/16 08:10:02;;;;;;;12.25;4.55;;;;;;;30.38;100.00;99865.88;1820707;77;21483;-70
2021/06/16 08:12:28;;;;;;;12.00;3.87;;;;;;;30.34;100.00;99870.88;1810929;78;21017;-69
2021/06/16 08:14:55;;;;;;;13.58;4.60;;;;;;;30.19;100.00;99869.53;1810124;78;21041;-69
2021/06/16 08:17:22;;;;;;;5.83;3.20;;;;;;;30.20;100.00;99863.85;1804034;78;20998;-69
2021/06/16 08:19:48;;;;;;;8.35;3.20;;;;;;;30.16;100.00;99873.68;1793370;79;21530;-68
2021/06/16 08:22:18;;;;;;;11.30;3.50;;;;;;;29.85;100.00;99881.97;1826329;78;21808;-69
2021/06/16 08:24:45;;;;;;;8.15;3.22;;;;;;;29.85;100.00;99881.97;1817959;78;21011;-69
2021/06/16 08:27:11;;;;;;;9.50;3.47;;;;;;;29.78;100.00;99881.69;1760628;81;21081;-70
2021/06/16 08:29:38;;;;;;;11.78;3.30;;;;;;;29.61;100.00;99866.95;1777504;79;21137;-70
2021/06/16 08:32:06;;;;;;;8.90;3.30;;;;;;;29.51;100.00;99858.63;1792754;79;20990;-71
2021/06/16 08:34:33;;;;;;;10.75;3.92;;;;;;;29.47;100.00;99863.88;1784557;79;21127;-70
2021/06/16 08:36:59;;;;;;;12.58;4.67;;;;;;;29.39;100.00;99871.93;1776532;79;20954;-69
2021/06/16 08:39:26;;;;;;;11.80;4.22;;;;;;;29.33;100.00;99881.50;1779419;79;21058;-70
2021/06/16 08:41:53;;;;;;;7.40;2.80;;;;;;;29.27;100.00;99886.78;1774103;79;20991;-70
2021/06/16 08:44:19;;;;;;;5.85;3.00;;;;;;;29.22;100.00;99880.80;1771056;79;21034;-72
2021/06/16 08:46:48;;;;;;;10.95;4.10;;;;;;;29.03;100.00;99882.46;1763960;81;21152;-70
2021/06/16 08:49:14;;;;;;;7.92;4.03;;;;;;;29.04;100.00;99885.38;1730889;82;20971;-68
2021/06/16 08:51:41;;;;;;;16.62;4.70;;;;;;;29.17;100.00;99884.44;1764255;81;21387;-70
2021/06/16 08:54:09;;;;;;;10.10;3.70;;;;;;;29.33;100.00;99891.45;1788293;80;20948;-70
2021/06/16 08:56:36;;;;;;;11.08;4.28;;;;;;;29.51;100.00;99898.39;1763557;81;20954;-70
2021/06/16 08:59:04;;;;;;;11.43;3.80;;;;;;;29.61;100.00;99892.47;1732178;82;21141;-70
2021/06/16 09:01:31;;;;;;;9.33;4.05;;;;;;;29.79;100.00;99889.42;1762112;81;21544;-73
2021/06/16 09:03:57;;;;;;;7.72;3.22;;;;;;;29.76;100.00;99888.71;1724875;82;21569;-71
2021/06/16 09:06:29;;;;;;;6.22;3.42;;;;;;;29.73;100.00;99888.00;1754372;81;21075;-71
2021/06/16 09:09:05;;;;;;;6.87;3.33;;;;;;;29.67;100.00;99885.83;1755250;81;21009;-71
2021/06/16 09:11:43;;;;;;;10.03;3.70;;;;;;;29.59;100.00;99884.74;1753993;81;21191;-72
2021/06/16 09:14:20;;;;;;;8.08;3.22;;;;;;;29.61;100.00;99884.41;1754876;81;21058;-72
2021/06/16 09:16:47;;;;;;;10.48;3.80;;;;;;;29.61;100.00;99887.88;1755065;81;20936;-71
2021/06/16 09:19:26;;;;;;;9.70;3.62;;;;;;;29.60;100.00;99890.90;1754123;81;21062;-69
2021/06/16 09:22:04;;;;;;;8.98;4.25;;;;;;;29.42;100.00;99902.17;1754165;81;21384;-69
2021/06/16 09:24:51;;;;;;;10.50;3.80;;;;;;;29.44;100.00;99905.35;1742830;82;21793;-72
2021/06/16 09:27:50;;;;;;;9.95;3.72;;;;;;;29.42;100.00;99910.23;1753971;81;21825;-71
2021/06/16 09:30:26;;;;;;;19.40;5.50;;;;;;;29.45;100.00;99900.99;1753574;81;21064;-70
2021/06/16 09:32:58;;;;;;;10.72;3.90;;;;;;;29.58;100.00;99891.20;1752846;81;21868;-72
2021/06/16 09:35:32;;;;;;;11.25;3.92;;;;;;;29.50;100.00;99896.00;1754456;81;21484;-71
2021/06/16 09:38:00;;;;;;;12.93;3.62;;;;;;;29.48;100.00;99895.55;1752750;81;21751;-70
2021/06/16 09:40:41;;;;;;;4.95;2.77;;;;;;;29.64;100.00;99895.86;1753940;81;21079;-70
2021/06/16 09:43:11;;;;;;;4.37;2.40;;;;;;;29.74;100.00;99897.66;1754149;81;20949;-70
2021/06/16 09:45:40;;;;;;;4.62;2.55;;;;;;;29.94;100.00;99897.52;1754428;81;21212;-70
2021/06/16 09:48:27;;;;;;;4.78;2.10;;;;;;;30.01;100.00;99914.50;1753431;81;21471;-68
2021/06/16 09:51:10;;;;;;;4.42;2.55;;;;;;;29.96;100.00;99920.03;1753860;81;21593;-71
2021/06/16 09:54:01;;;;;;;4.03;2.42;;;;;;;29.82;100.00;99922.94;1753376;81;21015;-70
2021/06/16 09:56:31;;;;;;;4.65;2.50;;;;;;;29.81;100.00;99925.36;1754597;81;20975;-72
2021/06/16 09:58:58;;;;;;;5.08;2.30;;;;;;;29.86;100.00;99926.55;1753594;81;21031;-70
2021/06/16 10:01:45;;;;;;;5.05;2.80;;;;;;;29.92;100.00;99930.63;1753753;81;21034;-69
2021/06/16 10:04:34;;;;;;;3.75;2.12;;;;;;;29.89;100.00;99929.14;1754188;81;21498;-71
2021/06/16 10:07:20;;;;;;;3.47;2.10;;;;;;;30.08;100.00;99932.80;1753729;81;20964;-69
2021/06/16 10:10:03;;;;;;;4.47;1.82;;;;;;;30.33;100.00;99933.85;1754116;81;21625;-70
2021/06/16 10:12:32;;;;;;;4.03;1.92;;;;;;;30.52;100.00;99928.86;1753048;81;21063;-71
2021/06/16 10:15:01;;;;;;;7.70;3.17;;;;;;;30.68;100.00;99931.20;1753436;81;20969;-70
2021/06/16 10:17:27;;;;;;;3.87;2.55;;;;;;;31.02;100.00;99934.83;1754022;81;21775;-69
2021/06/16 10:19:54;;;;;;;2.92;2.40;;;;;;;31.12;100.00;99931.75;1753319;81;21016;-71
2021/06/16 10:22:22;;;;;;;3.22;2.52;;;;;;;31.11;100.00;99930.18;1754164;81;21008;-71
2021/06/16 10:24:50;;;;;;;3.20;2.15;;;;;;;30.97;100.00;99922.91;1753698;81;21002;-69
2021/06/16 10:27:38;;;;;;;3.47;2.42;;;;;;;30.82;100.00;99916.20;1753625;81;21529;-71
2021/06/16 10:30:12;;;;;;;3.27;2.20;;;;;;;30.59;100.00;99910.30;1753436;81;21721;-74
2021/06/16 10:32:47;;;;;;;3.90;2.58;;;;;;;30.58;100.00;99911.42;1753346;81;21040;-73
2021/06/16 10:35:33;;;;;;;3.72;2.70;;;;;;;30.46;100.00;99917.50;1754375;81;20928;-70
2021/06/16 10:38:13;;;;;;;3.75;2.50;;;;;;;30.41;100.00;99912.30;1752997;81;22394;-72
2021/06/16 10:40:54;;;;;;;3.62;2.72;;;;;;;30.33;100.00;99913.69;1752890;81;21123;-71
2021/06/16 10:43:30;;;;;;;3.95;2.90;;;;;;;30.32;100.00;99920.97;1753940;81;21090;-71
2021/06/16 10:46:05;;;;;;;3.40;2.80;;;;;;;30.24;100.00;99926.62;1754587;80;21046;-73
2021/06/16 10:48:58;;;;;;;3.90;2.90;;;;;;;30.21;100.00;99924.56;1752637;79;20958;-71
2021/06/16 10:51:38;;;;;;;4.65;3.12;;;;;;;30.13;100.00;99925.36;1755517;80;20936;-71
2021/06/16 10:54:21;;;;;;;6.70;3.52;;;;;;;30.16;100.00;99932.82;1769985;79;21123;-68
2021/06/16 10:57:10;;;;;;;4.67;3.35;;;;;;;30.12;100.00;99931.05;1756161;81;21095;-70
2021/06/16 10:59:50;;;;;;;7.55;3.10;;;;;;;30.09;100.00;99920.40;1768781;80;21568;-68
2021/06/16 11:02:34;;;;;;;4.92;2.50;;;;;;;30.27;100.00;99917.91;1769250;80;21564;-70
2021/06/16 11:05:27;;;;;;;3.83;2.85;;;;;;;30.58;100.00;99915.46;1762614;79;21509;-70
2021/06/16 11:07:54;;;;;;;3.67;2.67;;;;;;;30.97;100.00;99908.11;1794129;79;20919;-70
2021/06/16 11:10:21;;;;;;;4.45;2.70;;;;;;;30.97;100.00;99908.11;1790253;79;21130;-70
2021/06/16 11:12:53;;;;;;;4.70;2.55;;;;;;;31.04;100.00;99897.61;1783112;79;22328;-67
2021/06/16 11:15:30;;;;;;;4.95;2.67;;;;;;;31.07;100.00;99903.69;1791029;79;20950;-69
2021/06/16 11:17:59;;;;;;;4.53;3.00;;;;;;;30.93;100.00;99897.77;1774285;79;20901;-67
2021/06/16 11:20:31;;;;;;;5.47;2.62;;;;;;;30.68;100.00;99900.83;1782295;79;20984;-68
2021/06/16 11:23:02;;;;;;;4.62;2.80;;;;;;;30.66;100.00;99894.44;1823854;78;21130;-70
2021/06/16 11:25:39;;;;;;;5.15;3.52;;;;;;;30.81;100.00;99899.05;1832749;76;21405;-69
2021/06/16 11:28:16;;;;;;;4.00;3.33;;;;;;;30.93;100.00;99891.05;1824195;76;21680;-68
2021/06/16 11:30:57;;;;;;;4.92;4.08;;;;;;;31.22;100.00;99892.31;1831721;76;21080;-71
2021/06/16 11:33:31;;;;;;;5.12;3.00;;;;;;;31.52;100.00;99889.55;1828004;76;21042;-73
2021/06/16 11:36:09;;;;;;;5.90;3.10;;;;;;;31.93;100.00;99887.84;1824155;78;21001;-69